sensor_id;sensor_type;location;lat;lon;timestamp;pressure;altitude;pressure_sealevel;temperature;humidity
46722;BME280;32455;43.430;23.136;2023-06-14T00:00:18;97922.22;;;15.14;100.00
46722;BME280;32455;43.430;23.136;2023-06-14T00:03:03;97919.19;;;15.11;100.00
46722;BME280;32455;43.430;23.136;2023-06-14T00:05:48;97924.84;;;15.04;100.00
46722;BME280;32455;43.430;23.136;2023-06-14T00:08:34;97921.88;;;15.06;100.00
46722;BME280;32455;43.430;23.136;2023-06-14T00:11:20;97931.69;;;15.12;100.00
46722;BME280;32455;43.430;23.136;2023-06-14T00:14:05;97925.41;;;15.11;100.00
46722;BME280;32455;43.430;23.136;2023-06-14T00:16:50;97923.56;;;15.12;100.00
46722;BME280;32455;43.430;23.136;2023-06-14T00:19:37;97920.06;;;15.16;100.00
46722;BME280;32455;43.430;23.136;2023-06-14T00:22:24;97911.34;;;15.09;100.00
46722;BME280;32455;43.430;23.136;2023-06-14T00:25:09;97909.66;;;15.03;100.00
46722;BME280;32455;43.430;23.136;2023-06-14T00:27:55;97924.03;;;15.03;100.00
46722;BME280;32455;43.430;23.136;2023-06-14T00:30:39;97913.75;;;15.06;100.00
46722;BME280;32455;43.430;23.136;2023-06-14T00:33:25;97906.13;;;15.02;100.00
46722;BME280;32455;43.430;23.136;2023-06-14T00:36:11;97912.16;;;15.10;100.00
46722;BME280;32455;43.430;23.136;2023-06-14T00:38:56;97909.50;;;15.15;100.00
46722;BME280;32455;43.430;23.136;2023-06-14T00:41:42;97907.53;;;15.05;100.00
46722;BME280;32455;43.430;23.136;2023-06-14T00:44:27;97896.41;;;15.01;100.00
46722;BME280;32455;43.430;23.136;2023-06-14T00:47:12;97896.69;;;15.05;100.00
46722;BME280;32455;43.430;23.136;2023-06-14T00:49:58;97894.25;;;15.03;100.00
46722;BME280;32455;43.430;23.136;2023-06-14T00:52:45;97883.38;;;14.98;100.00
46722;BME280;32455;43.430;23.136;2023-06-14T00:55:31;97895.03;;;14.99;100.00
46722;BME280;32455;43.430;23.136;2023-06-14T00:58:18;97888.25;;;14.96;100.00
46722;BME280;32455;43.430;23.136;2023-06-14T01:01:03;97886.63;;;14.95;100.00
46722;BME280;32455;43.430;23.136;2023-06-14T01:03:49;97875.75;;;14.90;100.00
46722;BME280;32455;43.430;23.136;2023-06-14T01:13:50;97888.28;;;15.01;100.00
46722;BME280;32455;43.430;23.136;2023-06-14T01:16:05;97898.78;;;14.98;100.00
46722;BME280;32455;43.430;23.136;2023-06-14T01:18:52;97895.53;;;14.96;100.00
46722;BME280;32455;43.430;23.136;2023-06-14T01:21:40;97886.91;;;14.99;100.00
46722;BME280;32455;43.430;23.136;2023-06-14T01:24:26;97891.50;;;14.98;100.00
46722;BME280;32455;43.430;23.136;2023-06-14T01:27:17;97894.72;;;14.95;100.00
46722;BME280;32455;43.430;23.136;2023-06-14T01:30:04;97895.28;;;14.97;100.00
46722;BME280;32455;43.430;23.136;2023-06-14T01:32:49;97888.28;;;15.01;100.00
46722;BME280;32455;43.430;23.136;2023-06-14T01:35:37;97885.03;;;14.99;100.00
46722;BME280;32455;43.430;23.136;2023-06-14T01:38:25;97893.41;;;15.03;100.00
46722;BME280;32455;43.430;23.136;2023-06-14T01:41:11;97889.09;;;15.02;100.00
46722;BME280;32455;43.430;23.136;2023-06-14T01:43:58;97891.03;;;15.07;100.00
46722;BME280;32455;43.430;23.136;2023-06-14T01:46:45;97894.50;;;15.02;100.00
46722;BME280;32455;43.430;23.136;2023-06-14T01:49:33;97885.53;;;14.96;100.00
46722;BME280;32455;43.430;23.136;2023-06-14T01:52:20;97892.88;;;15.01;100.00
46722;BME280;32455;43.430;23.136;2023-06-14T01:55:07;97891.50;;;14.98;100.00
46722;BME280;32455;43.430;23.136;2023-06-14T01:57:53;97893.66;;;14.96;100.00
46722;BME280;32455;43.430;23.136;2023-06-14T02:00:39;97895.28;;;14.97;100.00
46722;BME280;32455;43.430;23.136;2023-06-14T02:03:25;97899.56;;;14.93;100.00
46722;BME280;32455;43.430;23.136;2023-06-14T02:06:10;97892.56;;;14.97;100.00
46722;BME280;32455;43.430;23.136;2023-06-14T02:08:57;97883.88;;;14.90;100.00
46722;BME280;32455;43.430;23.136;2023-06-14T02:11:42;97900.66;;;14.92;100.00
46722;BME280;32455;43.430;23.136;2023-06-14T02:14:28;97901.78;;;14.96;100.00
46722;BME280;32455;43.430;23.136;2023-06-14T02:17:13;97903.41;;;14.97;100.00
46722;BME280;32455;43.430;23.136;2023-06-14T02:19:58;97910.19;;;15.00;100.00
46722;BME280;32455;43.430;23.136;2023-06-14T02:22:45;97899.69;;;15.03;100.00
46722;BME280;32455;43.430;23.136;2023-06-14T02:25:30;97901.84;;;15.07;100.00
46722;BME280;32455;43.430;23.136;2023-06-14T02:28:15;97905.63;;;15.06;100.00
46722;BME280;32455;43.430;23.136;2023-06-14T02:31:00;97897.94;;;14.92;100.00
46722;BME280;32455;43.430;23.136;2023-06-14T02:33:46;97901.47;;;14.93;100.00
46722;BME280;32455;43.430;23.136;2023-06-14T02:36:31;97900.19;;;15.00;100.00
46722;BME280;32455;43.430;23.136;2023-06-14T02:39:16;97899.59;;;14.98;100.00
46722;BME280;32455;43.430;23.136;2023-06-14T02:42:02;97896.91;;;14.98;100.00
46722;BME280;32455;43.430;23.136;2023-06-14T02:44:48;97893.84;;;14.90;100.00
46722;BME280;32455;43.430;23.136;2023-06-14T02:47:35;97899.91;;;15.02;100.00
46722;BME280;32455;43.430;23.136;2023-06-14T02:50:21;97905.56;;;14.95;100.00
46722;BME280;32455;43.430;23.136;2023-06-14T02:53:06;97902.81;;;14.90;100.00
46722;BME280;32455;43.430;23.136;2023-06-14T02:55:51;97904.41;;;14.86;100.00
46722;BME280;32455;43.430;23.136;2023-06-14T02:58:38;97914.00;;;15.04;100.00
46722;BME280;32455;43.430;23.136;2023-06-14T03:01:25;97907.78;;;15.03;100.00
46722;BME280;32455;43.430;23.136;2023-06-14T03:04:19;97921.78;;;14.95;100.00
46722;BME280;32455;43.430;23.136;2023-06-14T03:07:05;97924.25;;;15.02;100.00
46722;BME280;32455;43.430;23.136;2023-06-14T03:09:57;97914.69;;;14.89;100.00
46722;BME280;32455;43.430;23.136;2023-06-14T03:12:43;97919.91;;;14.96;100.00
46722;BME280;32455;43.430;23.136;2023-06-14T03:15:27;97923.44;;;15.01;100.00
46722;BME280;32455;43.430;23.136;2023-06-14T03:18:12;97915.59;;;15.00;100.00
46722;BME280;32455;43.430;23.136;2023-06-14T03:20:59;97921.59;;;15.07;100.00
46722;BME280;32455;43.430;23.136;2023-06-14T03:23:45;97931.06;;;15.05;100.00
46722;BME280;32455;43.430;23.136;2023-06-14T03:26:30;97922.34;;;14.97;100.00
46722;BME280;32455;43.430;23.136;2023-06-14T03:29:16;97914.22;;;14.97;100.00
46722;BME280;32455;43.430;23.136;2023-06-14T03:32:02;97916.16;;;15.02;100.00
46722;BME280;32455;43.430;23.136;2023-06-14T03:34:48;97909.56;;;14.93;100.00
46722;BME280;32455;43.430;23.136;2023-06-14T03:37:34;97922.91;;;14.99;100.00
46722;BME280;32455;43.430;23.136;2023-06-14T03:40:20;97928.09;;;15.06;100.00
46722;BME280;32455;43.430;23.136;2023-06-14T03:43:06;97915.63;;;15.05;100.00
46722;BME280;32455;43.430;23.136;2023-06-14T03:45:51;97922.72;;;15.11;100.00
46722;BME280;32455;43.430;23.136;2023-06-14T03:48:37;97928.44;;;15.15;100.00
46722;BME280;32455;43.430;23.136;2023-06-14T03:51:23;97921.41;;;15.14;100.00
46722;BME280;32455;43.430;23.136;2023-06-14T03:54:10;97918.66;;;15.09;100.00
46722;BME280;32455;43.430;23.136;2023-06-14T03:56:56;97931.47;;;15.23;100.00
46722;BME280;32455;43.430;23.136;2023-06-14T03:59:41;97922.47;;;15.13;100.00
46722;BME280;32455;43.430;23.136;2023-06-14T04:02:27;97928.97;;;15.12;100.00
46722;BME280;32455;43.430;23.136;2023-06-14T04:05:14;97933.72;;;15.32;100.00
46722;BME280;32455;43.430;23.136;2023-06-14T04:08:01;97922.81;;;15.21;100.00
46722;BME280;32455;43.430;23.136;2023-06-14T04:10:46;97940.19;;;15.25;100.00
46722;BME280;32455;43.430;23.136;2023-06-14T04:13:31;97941.81;;;15.26;100.00
46722;BME280;32455;43.430;23.136;2023-06-14T04:16:17;97935.28;;;15.22;100.00
46722;BME280;32455;43.430;23.136;2023-06-14T04:19:02;97923.84;;;15.15;100.00
46722;BME280;32455;43.430;23.136;2023-06-14T04:21:48;97924.75;;;15.26;100.00
46722;BME280;32455;43.430;23.136;2023-06-14T04:24:34;97926.41;;;15.32;100.00
46722;BME280;32455;43.430;23.136;2023-06-14T04:27:19;97921.63;;;15.44;100.00
46722;BME280;32455;43.430;23.136;2023-06-14T04:30:07;97931.34;;;15.40;100.00
46722;BME280;32455;43.430;23.136;2023-06-14T04:32:52;97931.38;;;15.45;100.00
46722;BME280;32455;43.430;23.136;2023-06-14T04:35:39;97930.81;;;15.38;100.00
46722;BME280;32455;43.430;23.136;2023-06-14T04:38:25;97943.84;;;15.46;100.00
46722;BME280;32455;43.430;23.136;2023-06-14T04:41:13;97939.22;;;15.42;100.00
46722;BME280;32455;43.430;23.136;2023-06-14T04:43:59;97944.41;;;15.48;100.00
46722;BME280;32455;43.430;23.136;2023-06-14T04:46:46;97952.50;;;15.43;100.00
46722;BME280;32455;43.430;23.136;2023-06-14T04:49:32;97937.88;;;15.44;100.00
46722;BME280;32455;43.430;23.136;2023-06-14T04:52:18;97954.22;;;15.55;100.00
46722;BME280;32455;43.430;23.136;2023-06-14T04:55:05;97962.91;;;15.62;100.00
46722;BME280;32455;43.430;23.136;2023-06-14T04:57:50;97964.88;;;15.66;100.00
46722;BME280;32455;43.430;23.136;2023-06-14T05:00:38;97958.13;;;15.69;100.00
46722;BME280;32455;43.430;23.136;2023-06-14T05:03:23;97966.25;;;15.69;100.00
46722;BME280;32455;43.430;23.136;2023-06-14T05:06:09;97971.53;;;15.59;100.00
46722;BME280;32455;43.430;23.136;2023-06-14T05:08:54;97958.44;;;15.72;100.00
46722;BME280;32455;43.430;23.136;2023-06-14T05:11:40;97959.44;;;15.66;100.00
46722;BME280;32455;43.430;23.136;2023-06-14T05:14:28;97976.59;;;15.77;100.00
46722;BME280;32455;43.430;23.136;2023-06-14T05:17:14;97975.00;;;15.81;100.00
46722;BME280;32455;43.430;23.136;2023-06-14T05:19:59;97972.47;;;15.69;100.00
46722;BME280;32455;43.430;23.136;2023-06-14T05:22:44;97970.63;;;15.80;100.00
46722;BME280;32455;43.430;23.136;2023-06-14T05:25:30;97983.09;;;15.76;100.00
46722;BME280;32455;43.430;23.136;2023-06-14T05:28:15;97981.22;;;15.82;100.00
46722;BME280;32455;43.430;23.136;2023-06-14T05:31:01;97988.75;;;15.74;100.00
46722;BME280;32455;43.430;23.136;2023-06-14T05:33:46;97995.63;;;15.87;100.00
46722;BME280;32455;43.430;23.136;2023-06-14T05:36:31;97987.00;;;15.95;100.00
46722;BME280;32455;43.430;23.136;2023-06-14T05:39:17;97989.72;;;15.95;100.00
46722;BME280;32455;43.430;23.136;2023-06-14T05:42:02;97992.16;;;15.97;100.00
46722;BME280;32455;43.430;23.136;2023-06-14T05:44:47;97989.44;;;15.97;100.00
46722;BME280;32455;43.430;23.136;2023-06-14T05:47:33;97993.75;;;15.93;100.00
46722;BME280;32455;43.430;23.136;2023-06-14T05:50:18;97991.09;;;15.98;100.00
46722;BME280;32455;43.430;23.136;2023-06-14T05:53:03;97987.53;;;15.92;100.00
46722;BME280;32455;43.430;23.136;2023-06-14T05:55:50;97995.78;;;16.13;100.00
46722;BME280;32455;43.430;23.136;2023-06-14T05:58:39;98002.00;;;16.13;100.00
46722;BME280;32455;43.430;23.136;2023-06-14T06:01:25;97982.19;;;16.02;100.00
46722;BME280;32455;43.430;23.136;2023-06-14T06:04:11;97998.75;;;16.06;100.00
46722;BME280;32455;43.430;23.136;2023-06-14T06:06:57;98002.03;;;16.18;100.00
46722;BME280;32455;43.430;23.136;2023-06-14T06:09:42;97990.94;;;16.15;100.00
46722;BME280;32455;43.430;23.136;2023-06-14T06:12:28;98004.69;;;16.03;100.00
46722;BME280;32455;43.430;23.136;2023-06-14T06:15:13;98005.81;;;16.12;100.00
46722;BME280;32455;43.430;23.136;2023-06-14T06:17:59;98012.03;;;16.13;100.00
46722;BME280;32455;43.430;23.136;2023-06-14T06:20:44;98011.03;;;16.24;100.00
46722;BME280;32455;43.430;23.136;2023-06-14T06:23:32;98001.28;;;16.28;100.00
46722;BME280;32455;43.430;23.136;2023-06-14T06:26:17;98002.34;;;16.27;100.00
46722;BME280;32455;43.430;23.136;2023-06-14T06:29:02;98008.09;;;16.36;100.00
46722;BME280;32455;43.430;23.136;2023-06-14T06:31:48;98002.94;;;16.34;100.00
46722;BME280;32455;43.430;23.136;2023-06-14T06:34:33;98004.00;;;16.28;100.00
46722;BME280;32455;43.430;23.136;2023-06-14T06:37:19;98015.97;;;16.37;100.00
46722;BME280;32455;43.430;23.136;2023-06-14T06:40:05;98023.03;;;16.38;100.00
46722;BME280;32455;43.430;23.136;2023-06-14T06:42:50;98018.72;;;16.47;100.00
46722;BME280;32455;43.430;23.136;2023-06-14T06:45:36;98016.59;;;16.55;100.00
46722;BME280;32455;43.430;23.136;2023-06-14T06:48:21;98020.03;;;16.40;100.00
46722;BME280;32455;43.430;23.136;2023-06-14T06:51:06;98011.28;;;16.22;100.00
46722;BME280;32455;43.430;23.136;2023-06-14T06:53:55;98016.13;;;16.10;100.00
46722;BME280;32455;43.430;23.136;2023-06-14T06:56:40;98019.91;;;16.14;100.00
46722;BME280;32455;43.430;23.136;2023-06-14T06:59:25;98023.50;;;16.25;100.00
46722;BME280;32455;43.430;23.136;2023-06-14T07:02:11;98025.75;;;16.38;100.00
46722;BME280;32455;43.430;23.136;2023-06-14T07:04:56;98029.28;;;16.44;100.00
46722;BME280;32455;43.430;23.136;2023-06-14T07:07:41;98027.16;;;16.51;100.00
46722;BME280;32455;43.430;23.136;2023-06-14T07:10:26;98020.41;;;16.59;100.00
46722;BME280;32455;43.430;23.136;2023-06-14T07:13:12;98014.19;;;16.58;100.00
46722;BME280;32455;43.430;23.136;2023-06-14T07:15:59;98016.63;;;16.65;100.00
46722;BME280;32455;43.430;23.136;2023-06-14T07:18:45;98006.59;;;16.65;100.00
46722;BME280;32455;43.430;23.136;2023-06-14T07:21:31;98019.66;;;16.73;100.00
46722;BME280;32455;43.430;23.136;2023-06-14T07:24:17;97996.84;;;16.69;100.00
46722;BME280;32455;43.430;23.136;2023-06-14T07:27:02;98015.94;;;16.90;100.00
46722;BME280;32455;43.430;23.136;2023-06-14T07:29:48;98019.75;;;16.94;100.00
46722;BME280;32455;43.430;23.136;2023-06-14T07:32:33;98012.13;;;16.91;100.00
46722;BME280;32455;43.430;23.136;2023-06-14T07:35:19;98011.31;;;16.95;100.00
46722;BME280;32455;43.430;23.136;2023-06-14T07:38:06;98017.72;;;16.69;100.00
46722;BME280;32455;43.430;23.136;2023-06-14T07:40:52;98029.66;;;16.68;100.00
46722;BME280;32455;43.430;23.136;2023-06-14T07:43:37;98032.19;;;16.74;100.00
46722;BME280;32455;43.430;23.136;2023-06-14T07:46:23;98030.19;;;16.70;100.00
46722;BME280;32455;43.430;23.136;2023-06-14T07:49:09;98028.91;;;16.77;100.00
46722;BME280;32455;43.430;23.136;2023-06-14T07:51:55;98036.56;;;16.91;100.00
46722;BME280;32455;43.430;23.136;2023-06-14T07:54:40;98037.63;;;16.90;100.00
46722;BME280;32455;43.430;23.136;2023-06-14T07:57:26;98047.13;;;16.87;100.00
46722;BME280;32455;43.430;23.136;2023-06-14T08:00:12;98057.50;;;17.00;100.00
46722;BME280;32455;43.430;23.136;2023-06-14T08:03:00;98055.59;;;16.96;100.00
46722;BME280;32455;43.430;23.136;2023-06-14T08:05:45;98056.94;;;16.98;100.00
46722;BME280;32455;43.430;23.136;2023-06-14T08:08:30;98056.13;;;16.98;100.00
46722;BME280;32455;43.430;23.136;2023-06-14T08:11:15;98064.19;;;16.83;100.00
46722;BME280;32455;43.430;23.136;2023-06-14T08:14:00;98067.28;;;17.01;100.00
46722;BME280;32455;43.430;23.136;2023-06-14T08:16:45;98072.19;;;17.05;100.00
46722;BME280;32455;43.430;23.136;2023-06-14T08:19:31;98068.06;;;16.92;100.00
46722;BME280;32455;43.430;23.136;2023-06-14T08:22:16;98072.19;;;17.10;100.00
46722;BME280;32455;43.430;23.136;2023-06-14T08:25:04;98073.28;;;17.19;100.00
46722;BME280;32455;43.430;23.136;2023-06-14T08:27:49;98071.16;;;17.41;100.00
46722;BME280;32455;43.430;23.136;2023-06-14T08:30:35;98081.50;;;17.55;100.00
46722;BME280;32455;43.430;23.136;2023-06-14T08:33:20;98075.00;;;17.61;100.00
46722;BME280;32455;43.430;23.136;2023-06-14T08:36:05;98077.97;;;17.64;100.00
46722;BME280;32455;43.430;23.136;2023-06-14T08:38:51;98071.47;;;17.70;100.00
46722;BME280;32455;43.430;23.136;2023-06-14T08:41:37;98078.78;;;17.60;100.00
46722;BME280;32455;43.430;23.136;2023-06-14T08:44:22;98077.16;;;17.59;100.00
46722;BME280;32455;43.430;23.136;2023-06-14T08:47:09;98073.91;;;17.72;100.00
46722;BME280;32455;43.430;23.136;2023-06-14T08:49:55;98078.03;;;17.74;100.00
46722;BME280;32455;43.430;23.136;2023-06-14T08:52:45;98080.44;;;17.81;100.00
46722;BME280;32455;43.430;23.136;2023-06-14T08:55:34;98074.50;;;17.74;100.00
46722;BME280;32455;43.430;23.136;2023-06-14T08:58:23;98079.66;;;17.75;100.00
46722;BME280;32455;43.430;23.136;2023-06-14T09:01:09;98083.16;;;17.81;100.00
46722;BME280;32455;43.430;23.136;2023-06-14T09:03:57;98078.81;;;17.85;100.00
46722;BME280;32455;43.430;23.136;2023-06-14T09:06:42;98077.75;;;17.86;100.00
46722;BME280;32455;43.430;23.136;2023-06-14T09:09:28;98085.91;;;17.91;100.00
46722;BME280;32455;43.430;23.136;2023-06-14T09:12:14;98083.19;;;17.96;100.00
46722;BME280;32455;43.430;23.136;2023-06-14T09:14:59;98089.72;;;17.95;100.00
46722;BME280;32455;43.430;23.136;2023-06-14T09:17:45;98080.19;;;17.93;100.00
46722;BME280;32455;43.430;23.136;2023-06-14T09:20:31;98076.91;;;18.01;100.00
46722;BME280;32455;43.430;23.136;2023-06-14T09:23:20;98075.56;;;18.09;100.00
46722;BME280;32455;43.430;23.136;2023-06-14T09:26:14;98071.44;;;18.26;100.00
46722;BME280;32455;43.430;23.136;2023-06-14T09:29:00;98079.88;;;18.35;100.00
46722;BME280;32455;43.430;23.136;2023-06-14T09:31:49;98071.41;;;18.37;100.00
46722;BME280;32455;43.430;23.136;2023-06-14T09:34:35;98067.63;;;18.38;100.00
46722;BME280;32455;43.430;23.136;2023-06-14T09:37:28;98082.00;;;18.53;100.00
46722;BME280;32455;43.430;23.136;2023-06-14T09:40:20;98081.19;;;18.48;100.00
46722;BME280;32455;43.430;23.136;2023-06-14T09:43:07;98080.97;;;18.34;100.00
46722;BME280;32455;43.430;23.136;2023-06-14T09:45:55;98073.31;;;18.51;100.00
46722;BME280;32455;43.430;23.136;2023-06-14T09:48:41;98068.38;;;18.64;100.00
46722;BME280;32455;43.430;23.136;2023-06-14T09:51:28;98077.34;;;18.69;100.00
46722;BME280;32455;43.430;23.136;2023-06-14T09:54:16;98067.53;;;18.68;100.00
46722;BME280;32455;43.430;23.136;2023-06-14T09:57:07;98076.22;;;18.86;100.00
46722;BME280;32455;43.430;23.136;2023-06-14T09:59:57;98082.19;;;18.88;100.00
46722;BME280;32455;43.430;23.136;2023-06-14T10:02:48;98073.19;;;18.87;100.00
46722;BME280;32455;43.430;23.136;2023-06-14T10:05:37;98075.94;;;18.87;100.00
46722;BME280;32455;43.430;23.136;2023-06-14T10:08:25;98077.25;;;18.95;100.00
46722;BME280;32455;43.430;23.136;2023-06-14T10:11:13;98062.53;;;18.96;100.00
46722;BME280;32455;43.430;23.136;2023-06-14T10:13:59;98072.31;;;19.07;100.00
46722;BME280;32455;43.430;23.136;2023-06-14T10:17:00;98067.28;;;19.30;100.00
46722;BME280;32455;43.430;23.136;2023-06-14T10:19:58;98064.00;;;19.33;100.00
46722;BME280;32455;43.430;23.136;2023-06-14T10:23:07;98066.41;;;19.34;100.00
46722;BME280;32455;43.430;23.136;2023-06-14T10:25:59;98058.44;;;19.04;100.00
46722;BME280;32455;43.430;23.136;2023-06-14T10:28:59;98059.94;;;19.25;100.00
46722;BME280;32455;43.430;23.136;2023-06-14T10:31:50;98053.72;;;19.19;100.00
46722;BME280;32455;43.430;23.136;2023-06-14T10:34:38;98053.66;;;19.30;100.00
46722;BME280;32455;43.430;23.136;2023-06-14T10:37:23;98060.75;;;19.25;100.00
46722;BME280;32455;43.430;23.136;2023-06-14T10:40:30;98057.72;;;19.27;100.00
46722;BME280;32455;43.430;23.136;2023-06-14T10:43:23;98062.84;;;19.39;100.00
46722;BME280;32455;43.430;23.136;2023-06-14T10:46:15;98057.44;;;19.34;100.00
46722;BME280;32455;43.430;23.136;2023-06-14T10:49:02;98054.13;;;19.42;100.00
46722;BME280;32455;43.430;23.136;2023-06-14T10:51:52;98056.59;;;19.38;100.00
46722;BME280;32455;43.430;23.136;2023-06-14T10:54:38;98055.94;;;19.51;100.00
46722;BME280;32455;43.430;23.136;2023-06-14T10:57:23;98046.91;;;19.66;100.00
46722;BME280;32455;43.430;23.136;2023-06-14T11:00:10;98036.56;;;19.63;100.00
46722;BME280;32455;43.430;23.136;2023-06-14T11:06:47;98048.91;;;19.45;100.00
46722;BME280;32455;43.430;23.136;2023-06-14T11:12:48;98052.84;;;19.68;100.00
46722;BME280;32455;43.430;23.136;2023-06-14T11:15:36;98045.69;;;19.77;100.00
46722;BME280;32455;43.430;23.136;2023-06-14T11:18:22;98045.69;;;19.77;100.00
46722;BME280;32455;43.430;23.136;2023-06-14T11:21:20;98047.34;;;19.73;100.00
46722;BME280;32455;43.430;23.136;2023-06-14T11:24:10;98042.19;;;19.72;100.00
46722;BME280;32455;43.430;23.136;2023-06-14T11:26:56;98031.09;;;19.63;100.00
46722;BME280;32455;43.430;23.136;2023-06-14T11:29:51;98031.91;;;19.64;100.00
46722;BME280;32455;43.430;23.136;2023-06-14T11:32:39;98035.22;;;19.56;100.00
46722;BME280;32455;43.430;23.136;2023-06-14T11:35:25;98040.41;;;19.57;100.00
46722;BME280;32455;43.430;23.136;2023-06-14T11:38:11;98035.53;;;19.49;100.00
46722;BME280;32455;43.430;23.136;2023-06-14T11:40:59;98029.50;;;19.57;100.00
46722;BME280;32455;43.430;23.136;2023-06-14T11:43:45;98032.22;;;19.57;100.00
46722;BME280;32455;43.430;23.136;2023-06-14T11:46:31;98021.56;;;19.61;100.00
46722;BME280;32455;43.430;23.136;2023-06-14T11:49:16;98027.25;;;19.64;100.00
46722;BME280;32455;43.430;23.136;2023-06-14T11:52:02;98020.72;;;19.60;100.00
46722;BME280;32455;43.430;23.136;2023-06-14T11:54:48;98025.38;;;19.60;100.00
46722;BME280;32455;43.430;23.136;2023-06-14T11:57:36;98024.66;;;19.49;100.00
46722;BME280;32455;43.430;23.136;2023-06-14T12:00:26;98020.25;;;19.53;100.00
46722;BME280;32455;43.430;23.136;2023-06-14T12:03:12;98013.25;;;19.42;100.00
46722;BME280;32455;43.430;23.136;2023-06-14T12:06:05;98024.44;;;19.40;100.00
46722;BME280;32455;43.430;23.136;2023-06-14T12:08:57;98021.66;;;19.45;100.00
46722;BME280;32455;43.430;23.136;2023-06-14T12:11:43;98022.13;;;19.52;100.00
46722;BME280;32455;43.430;23.136;2023-06-14T12:14:31;98017.75;;;19.57;100.00
46722;BME280;32455;43.430;23.136;2023-06-14T12:17:17;98010.06;;;19.69;100.00
46722;BME280;32455;43.430;23.136;2023-06-14T12:20:07;98006.44;;;19.79;100.00
46722;BME280;32455;43.430;23.136;2023-06-14T12:22:58;98018.25;;;19.98;100.00
46722;BME280;32455;43.430;23.136;2023-06-14T12:25:43;98009.75;;;20.05;100.00
46722;BME280;32455;43.430;23.136;2023-06-14T12:28:31;98016.09;;;19.95;100.00
46722;BME280;32455;43.430;23.136;2023-06-14T12:31:17;98016.47;;;20.12;100.00
46722;BME280;32455;43.430;23.136;2023-06-14T12:34:03;98011.44;;;20.24;100.00
46722;BME280;32455;43.430;23.136;2023-06-14T12:36:52;98010.69;;;20.19;100.00
46722;BME280;32455;43.430;23.136;2023-06-14T12:39:38;98007.72;;;20.39;100.00
46722;BME280;32455;43.430;23.136;2023-06-14T12:42:24;98004.19;;;20.39;100.00
46722;BME280;32455;43.430;23.136;2023-06-14T12:45:10;97989.78;;;20.33;100.00
46722;BME280;32455;43.430;23.136;2023-06-14T12:47:55;97991.75;;;20.27;100.00
46722;BME280;32455;43.430;23.136;2023-06-14T12:50:41;97994.44;;;20.09;100.00
46722;BME280;32455;43.430;23.136;2023-06-14T12:53:27;97985.75;;;20.25;100.00
46722;BME280;32455;43.430;23.136;2023-06-14T12:56:12;97984.03;;;20.59;100.00
46722;BME280;32455;43.430;23.136;2023-06-14T12:58:58;97980.56;;;20.53;100.00
46722;BME280;32455;43.430;23.136;2023-06-14T13:01:44;97971.19;;;20.59;100.00
46722;BME280;32455;43.430;23.136;2023-06-14T13:04:35;97971.09;;;20.88;100.00
46722;BME280;32455;43.430;23.136;2023-06-14T13:07:21;97967.50;;;21.12;100.00
46722;BME280;32455;43.430;23.136;2023-06-14T13:10:07;97955.97;;;20.77;100.00
46722;BME280;32455;43.430;23.136;2023-06-14T13:12:53;97961.13;;;20.79;100.00
46722;BME280;32455;43.430;23.136;2023-06-14T13:15:37;97954.09;;;21.10;100.00
46722;BME280;32455;43.430;23.136;2023-06-14T13:18:22;97953.78;;;21.31;100.00
46722;BME280;32455;43.430;23.136;2023-06-14T13:21:08;97957.44;;;21.26;100.00
46722;BME280;32455;43.430;23.136;2023-06-14T13:23:53;97965.25;;;21.14;100.00
46722;BME280;32455;43.430;23.136;2023-06-14T13:26:39;97967.56;;;20.88;100.00
46722;BME280;32455;43.430;23.136;2023-06-14T13:29:24;97967.84;;;20.86;100.00
46722;BME280;32455;43.430;23.136;2023-06-14T13:32:11;97976.00;;;20.67;100.00
46722;BME280;32455;43.430;23.136;2023-06-14T13:34:56;97985.00;;;20.68;100.00
46722;BME280;32455;43.430;23.136;2023-06-14T13:37:42;97977.47;;;20.60;100.00
46722;BME280;32455;43.430;23.136;2023-06-14T13:40:27;97983.16;;;20.63;100.00
46722;BME280;32455;43.430;23.136;2023-06-14T13:43:13;97970.56;;;20.43;100.00
46722;BME280;32455;43.430;23.136;2023-06-14T13:45:58;97975.06;;;20.34;100.00
46722;BME280;32455;43.430;23.136;2023-06-14T13:48:44;97963.66;;;20.27;100.00
46722;BME280;32455;43.430;23.136;2023-06-14T13:51:31;97974.28;;;20.29;100.00
46722;BME280;32455;43.430;23.136;2023-06-14T13:54:20;97971.31;;;20.25;100.00
46722;BME280;32455;43.430;23.136;2023-06-14T13:57:06;97964.47;;;20.27;100.00
46722;BME280;32455;43.430;23.136;2023-06-14T13:59:51;97961.91;;;20.36;100.00
46722;BME280;32455;43.430;23.136;2023-06-14T14:02:40;97966.22;;;20.18;100.00
46722;BME280;32455;43.430;23.136;2023-06-14T14:05:25;97962.25;;;20.30;100.00
46722;BME280;32455;43.430;23.136;2023-06-14T14:08:14;97959.06;;;20.22;100.00
46722;BME280;32455;43.430;23.136;2023-06-14T14:10:59;97972.09;;;20.31;100.00
46722;BME280;32455;43.430;23.136;2023-06-14T14:13:46;97976.56;;;20.21;100.00
46722;BME280;32455;43.430;23.136;2023-06-14T14:16:31;97971.59;;;20.23;100.00
46722;BME280;32455;43.430;23.136;2023-06-14T14:19:18;97971.91;;;20.22;100.00
46722;BME280;32455;43.430;23.136;2023-06-14T14:22:06;97967.72;;;20.06;100.00
46722;BME280;32455;43.430;23.136;2023-06-14T14:24:51;97966.38;;;20.03;100.00
46722;BME280;32455;43.430;23.136;2023-06-14T14:27:37;97962.84;;;20.02;100.00
46722;BME280;32455;43.430;23.136;2023-06-14T14:30:22;97959.59;;;20.00;100.00
46722;BME280;32455;43.430;23.136;2023-06-14T14:33:08;97967.81;;;19.95;100.00